sensor_id;sensor_type;location;lat;lon;timestamp;P1;durP1;ratioP1;P2;durP2;ratioP2
23730;SDS011;12046;44.702;10.622;2023-03-31T00:22:51;8.32;;;4.20;;
23730;SDS011;12046;44.702;10.622;2023-03-31T00:25:18;7.18;;;4.43;;
23730;SDS011;12046;44.702;10.622;2023-03-31T00:27:45;6.88;;;4.22;;
23730;SDS011;12046;44.702;10.622;2023-03-31T00:30:14;9.05;;;3.97;;
23730;SDS011;12046;44.702;10.622;2023-03-31T00:32:43;7.05;;;3.30;;
23730;SDS011;12046;44.702;10.622;2023-03-31T00:35:12;6.90;;;3.42;;
23730;SDS011;12046;44.702;10.622;2023-03-31T00:37:38;6.03;;;3.70;;
23730;SDS011;12046;44.702;10.622;2023-03-31T00:40:07;7.28;;;3.72;;
23730;SDS011;12046;44.702;10.622;2023-03-31T00:42:39;4.85;;;3.30;;
23730;SDS011;12046;44.702;10.622;2023-03-31T00:55:22;8.32;;;5.57;;
23730;SDS011;12046;44.702;10.622;2023-03-31T00:57:54;12.00;;;7.32;;
23730;SDS011;12046;44.702;10.622;2023-03-31T01:00:22;13.15;;;8.48;;
23730;SDS011;12046;44.702;10.622;2023-03-31T01:02:49;16.90;;;9.27;;
23730;SDS011;12046;44.702;10.622;2023-03-31T01:05:24;18.38;;;10.43;;
23730;SDS011;12046;44.702;10.622;2023-03-31T01:07:56;21.88;;;13.68;;
23730;SDS011;12046;44.702;10.622;2023-03-31T01:10:28;17.83;;;12.48;;
23730;SDS011;12046;44.702;10.622;2023-03-31T01:12:57;18.05;;;13.75;;
23730;SDS011;12046;44.702;10.622;2023-03-31T01:15:23;15.43;;;12.82;;
23730;SDS011;12046;44.702;10.622;2023-03-31T01:17:49;17.33;;;12.63;;
23730;SDS011;12046;44.702;10.622;2023-03-31T01:20:33;14.73;;;12.40;;
23730;SDS011;12046;44.702;10.622;2023-03-31T01:23:30;16.63;;;12.45;;
23730;SDS011;12046;44.702;10.622;2023-03-31T01:48:43;16.25;;;10.25;;
23730;SDS011;12046;44.702;10.622;2023-03-31T01:54:27;13.75;;;10.02;;
23730;SDS011;12046;44.702;10.622;2023-03-31T02:05:13;16.23;;;9.55;;
23730;SDS011;12046;44.702;10.622;2023-03-31T02:07:45;11.95;;;7.75;;
23730;SDS011;12046;44.702;10.622;2023-03-31T02:10:20;9.32;;;7.13;;
23730;SDS011;12046;44.702;10.622;2023-03-31T02:12:50;10.95;;;7.25;;
23730;SDS011;12046;44.702;10.622;2023-03-31T02:15:19;10.82;;;5.82;;
23730;SDS011;12046;44.702;10.622;2023-03-31T02:17:50;8.25;;;5.15;;
23730;SDS011;12046;44.702;10.622;2023-03-31T02:20:19;8.18;;;4.68;;
23730;SDS011;12046;44.702;10.622;2023-03-31T02:22:51;6.50;;;3.83;;
23730;SDS011;12046;44.702;10.622;2023-03-31T02:25:21;6.75;;;4.47;;
23730;SDS011;12046;44.702;10.622;2023-03-31T02:27:55;9.88;;;4.50;;
23730;SDS011;12046;44.702;10.622;2023-03-31T02:30:45;7.32;;;4.43;;
23730;SDS011;12046;44.702;10.622;2023-03-31T02:33:18;7.30;;;4.07;;
23730;SDS011;12046;44.702;10.622;2023-03-31T02:35:44;5.95;;;4.15;;
23730;SDS011;12046;44.702;10.622;2023-03-31T02:38:10;5.00;;;3.80;;
23730;SDS011;12046;44.702;10.622;2023-03-31T02:40:36;8.85;;;4.10;;
23730;SDS011;12046;44.702;10.622;2023-03-31T02:43:02;7.45;;;4.13;;
23730;SDS011;12046;44.702;10.622;2023-03-31T02:54:16;8.00;;;4.15;;
23730;SDS011;12046;44.702;10.622;2023-03-31T03:11:12;9.75;;;5.57;;
23730;SDS011;12046;44.702;10.622;2023-03-31T03:16:55;11.88;;;6.05;;
23730;SDS011;12046;44.702;10.622;2023-03-31T03:19:25;9.65;;;6.28;;
23730;SDS011;12046;44.702;10.622;2023-03-31T03:21:51;7.95;;;5.97;;
23730;SDS011;12046;44.702;10.622;2023-03-31T03:24:17;10.73;;;6.38;;
23730;SDS011;12046;44.702;10.622;2023-03-31T03:26:43;13.43;;;6.57;;
23730;SDS011;12046;44.702;10.622;2023-03-31T03:29:10;8.20;;;5.90;;
23730;SDS011;12046;44.702;10.622;2023-03-31T03:31:39;13.80;;;6.82;;
23730;SDS011;12046;44.702;10.622;2023-03-31T03:34:05;10.77;;;7.22;;
23730;SDS011;12046;44.702;10.622;2023-03-31T03:36:31;10.70;;;6.88;;
23730;SDS011;12046;44.702;10.622;2023-03-31T03:39:01;10.30;;;6.93;;
23730;SDS011;12046;44.702;10.622;2023-03-31T03:41:28;8.27;;;6.70;;
23730;SDS011;12046;44.702;10.622;2023-03-31T03:43:59;9.98;;;6.85;;
23730;SDS011;12046;44.702;10.622;2023-03-31T03:46:25;9.93;;;6.38;;
23730;SDS011;12046;44.702;10.622;2023-03-31T03:48:51;8.82;;;6.45;;
23730;SDS011;12046;44.702;10.622;2023-03-31T03:51:20;7.40;;;5.40;;
23730;SDS011;12046;44.702;10.622;2023-03-31T03:53:49;10.82;;;5.93;;
23730;SDS011;12046;44.702;10.622;2023-03-31T03:56:15;9.70;;;5.93;;
23730;SDS011;12046;44.702;10.622;2023-03-31T03:58:47;9.55;;;5.85;;
23730;SDS011;12046;44.702;10.622;2023-03-31T04:01:13;12.18;;;6.20;;
23730;SDS011;12046;44.702;10.622;2023-03-31T04:03:41;8.50;;;5.82;;
23730;SDS011;12046;44.702;10.622;2023-03-31T04:06:07;9.77;;;5.70;;
23730;SDS011;12046;44.702;10.622;2023-03-31T04:08:32;10.75;;;5.75;;
23730;SDS011;12046;44.702;10.622;2023-03-31T04:11:02;8.45;;;5.57;;
23730;SDS011;12046;44.702;10.622;2023-03-31T04:13:34;7.65;;;5.65;;
23730;SDS011;12046;44.702;10.622;2023-03-31T04:16:02;10.10;;;6.43;;
23730;SDS011;12046;44.702;10.622;2023-03-31T04:18:28;10.27;;;6.80;;
23730;SDS011;12046;44.702;10.622;2023-03-31T04:20:54;11.40;;;7.60;;
23730;SDS011;12046;44.702;10.622;2023-03-31T04:23:35;10.20;;;7.43;;
23730;SDS011;12046;44.702;10.622;2023-03-31T04:26:15;11.20;;;8.13;;
23730;SDS011;12046;44.702;10.622;2023-03-31T04:28:56;11.23;;;8.32;;
23730;SDS011;12046;44.702;10.622;2023-03-31T04:31:24;10.95;;;7.93;;
23730;SDS011;12046;44.702;10.622;2023-03-31T04:33:53;15.60;;;8.25;;
23730;SDS011;12046;44.702;10.622;2023-03-31T04:39:03;11.07;;;8.88;;
23730;SDS011;12046;44.702;10.622;2023-03-31T04:41:32;15.98;;;9.02;;
23730;SDS011;12046;44.702;10.622;2023-03-31T04:43:58;13.32;;;9.13;;
23730;SDS011;12046;44.702;10.622;2023-03-31T04:46:23;13.88;;;9.30;;
23730;SDS011;12046;44.702;10.622;2023-03-31T04:48:53;12.48;;;9.18;;
23730;SDS011;12046;44.702;10.622;2023-03-31T04:51:19;12.05;;;8.82;;
23730;SDS011;12046;44.702;10.622;2023-03-31T04:53:45;16.55;;;9.50;;
23730;SDS011;12046;44.702;10.622;2023-03-31T04:56:16;13.25;;;9.05;;
23730;SDS011;12046;44.702;10.622;2023-03-31T04:58:42;18.88;;;9.48;;
23730;SDS011;12046;44.702;10.622;2023-03-31T05:01:08;17.80;;;10.18;;
23730;SDS011;12046;44.702;10.622;2023-03-31T05:03:37;12.52;;;8.82;;
23730;SDS011;12046;44.702;10.622;2023-03-31T05:06:04;16.20;;;9.05;;
23730;SDS011;12046;44.702;10.622;2023-03-31T05:08:30;15.43;;;9.98;;
23730;SDS011;12046;44.702;10.622;2023-03-31T05:10:59;18.45;;;10.07;;
23730;SDS011;12046;44.702;10.622;2023-03-31T05:13:26;15.25;;;10.68;;
23730;SDS011;12046;44.702;10.622;2023-03-31T05:15:55;14.52;;;10.40;;
23730;SDS011;12046;44.702;10.622;2023-03-31T05:18:30;15.75;;;10.40;;
23730;SDS011;12046;44.702;10.622;2023-03-31T05:20:55;13.02;;;9.88;;
23730;SDS011;12046;44.702;10.622;2023-03-31T05:23:33;16.30;;;11.35;;
23730;SDS011;12046;44.702;10.622;2023-03-31T05:25:59;18.58;;;10.82;;
23730;SDS011;12046;44.702;10.622;2023-03-31T05:28:25;17.92;;;10.10;;
23730;SDS011;12046;44.702;10.622;2023-03-31T05:30:50;17.48;;;9.70;;
23730;SDS011;12046;44.702;10.622;2023-03-31T05:33:16;14.80;;;10.75;;
23730;SDS011;12046;44.702;10.622;2023-03-31T05:35:45;14.43;;;10.88;;
23730;SDS011;12046;44.702;10.622;2023-03-31T05:38:14;21.02;;;11.20;;
23730;SDS011;12046;44.702;10.622;2023-03-31T05:40:41;16.52;;;11.00;;
23730;SDS011;12046;44.702;10.622;2023-03-31T05:43:09;18.88;;;11.38;;
23730;SDS011;12046;44.702;10.622;2023-03-31T05:45:35;18.58;;;10.95;;
23730;SDS011;12046;44.702;10.622;2023-03-31T05:48:01;16.08;;;10.82;;
23730;SDS011;12046;44.702;10.622;2023-03-31T05:50:32;17.13;;;10.38;;
23730;SDS011;12046;44.702;10.622;2023-03-31T05:52:58;16.10;;;9.40;;
23730;SDS011;12046;44.702;10.622;2023-03-31T05:55:24;15.75;;;9.13;;
23730;SDS011;12046;44.702;10.622;2023-03-31T05:57:50;13.02;;;9.30;;
23730;SDS011;12046;44.702;10.622;2023-03-31T06:00:19;15.63;;;8.80;;
23730;SDS011;12046;44.702;10.622;2023-03-31T06:02:45;14.98;;;9.05;;
23730;SDS011;12046;44.702;10.622;2023-03-31T06:05:11;12.32;;;8.57;;
23730;SDS011;12046;44.702;10.622;2023-03-31T06:07:37;12.57;;;8.85;;
23730;SDS011;12046;44.702;10.622;2023-03-31T06:10:03;16.13;;;8.93;;
23730;SDS011;12046;44.702;10.622;2023-03-31T06:12:31;13.18;;;8.93;;
23730;SDS011;12046;44.702;10.622;2023-03-31T06:14:57;12.05;;;9.07;;
23730;SDS011;12046;44.702;10.622;2023-03-31T06:17:26;13.45;;;9.07;;
23730;SDS011;12046;44.702;10.622;2023-03-31T06:19:52;16.20;;;9.10;;
23730;SDS011;12046;44.702;10.622;2023-03-31T06:22:17;19.52;;;9.10;;
23730;SDS011;12046;44.702;10.622;2023-03-31T06:24:43;18.98;;;8.23;;
23730;SDS011;12046;44.702;10.622;2023-03-31T06:27:09;21.05;;;9.25;;
23730;SDS011;12046;44.702;10.622;2023-03-31T06:29:35;14.32;;;8.93;;
23730;SDS011;12046;44.702;10.622;2023-03-31T06:32:01;16.45;;;9.18;;
23730;SDS011;12046;44.702;10.622;2023-03-31T06:34:29;21.48;;;9.30;;
23730;SDS011;12046;44.702;10.622;2023-03-31T06:36:55;17.35;;;9.00;;
23730;SDS011;12046;44.702;10.622;2023-03-31T06:42:13;19.60;;;8.70;;
23730;SDS011;12046;44.702;10.622;2023-03-31T06:44:39;14.93;;;7.97;;
23730;SDS011;12046;44.702;10.622;2023-03-31T06:47:05;12.95;;;8.02;;
23730;SDS011;12046;44.702;10.622;2023-03-31T06:49:34;13.98;;;8.05;;
23730;SDS011;12046;44.702;10.622;2023-03-31T06:55:05;13.23;;;7.18;;
23730;SDS011;12046;44.702;10.622;2023-03-31T06:57:33;11.25;;;7.30;;
23730;SDS011;12046;44.702;10.622;2023-03-31T07:00:01;9.70;;;7.10;;
23730;SDS011;12046;44.702;10.622;2023-03-31T07:02:28;11.15;;;6.80;;
23730;SDS011;12046;44.702;10.622;2023-03-31T07:04:54;12.25;;;6.63;;
23730;SDS011;12046;44.702;10.622;2023-03-31T07:07:20;11.73;;;6.45;;
23730;SDS011;12046;44.702;10.622;2023-03-31T07:10:20;13.90;;;6.32;;
23730;SDS011;12046;44.702;10.622;2023-03-31T07:12:41;10.05;;;6.55;;
23730;SDS011;12046;44.702;10.622;2023-03-31T07:15:07;18.02;;;7.00;;
23730;SDS011;12046;44.702;10.622;2023-03-31T07:17:33;18.70;;;7.95;;
23730;SDS011;12046;44.702;10.622;2023-03-31T07:20:02;13.77;;;6.32;;
23730;SDS011;12046;44.702;10.622;2023-03-31T07:22:29;14.02;;;6.00;;
23730;SDS011;12046;44.702;10.622;2023-03-31T07:24:55;9.10;;;5.72;;
23730;SDS011;12046;44.702;10.622;2023-03-31T07:27:20;12.05;;;6.10;;
23730;SDS011;12046;44.702;10.622;2023-03-31T07:29:46;15.68;;;5.25;;
23730;SDS011;12046;44.702;10.622;2023-03-31T07:32:12;9.55;;;4.53;;
23730;SDS011;12046;44.702;10.622;2023-03-31T07:34:38;11.50;;;4.00;;
23730;SDS011;12046;44.702;10.622;2023-03-31T07:37:05;7.38;;;3.88;;
23730;SDS011;12046;44.702;10.622;2023-03-31T07:39:31;12.73;;;4.50;;
23730;SDS011;12046;44.702;10.622;2023-03-31T07:41:57;8.93;;;3.45;;
23730;SDS011;12046;44.702;10.622;2023-03-31T07:44:23;9.20;;;3.20;;
23730;SDS011;12046;44.702;10.622;2023-03-31T07:46:49;8.85;;;3.83;;
23730;SDS011;12046;44.702;10.622;2023-03-31T07:49:14;8.15;;;3.40;;
23730;SDS011;12046;44.702;10.622;2023-03-31T07:51:40;8.60;;;3.42;;
23730;SDS011;12046;44.702;10.622;2023-03-31T07:54:06;8.85;;;3.78;;
23730;SDS011;12046;44.702;10.622;2023-03-31T07:56:32;7.35;;;3.08;;
23730;SDS011;12046;44.702;10.622;2023-03-31T07:58:58;5.57;;;2.80;;
23730;SDS011;12046;44.702;10.622;2023-03-31T08:01:24;7.63;;;2.90;;
23730;SDS011;12046;44.702;10.622;2023-03-31T08:03:50;8.13;;;2.63;;
23730;SDS011;12046;44.702;10.622;2023-03-31T08:06:22;6.60;;;2.63;;
23730;SDS011;12046;44.702;10.622;2023-03-31T08:08:49;8.60;;;2.90;;
23730;SDS011;12046;44.702;10.622;2023-03-31T08:11:16;9.90;;;2.45;;
23730;SDS011;12046;44.702;10.622;2023-03-31T08:13:42;14.48;;;3.58;;
23730;SDS011;12046;44.702;10.622;2023-03-31T08:16:08;10.88;;;3.28;;
23730;SDS011;12046;44.702;10.622;2023-03-31T08:18:34;7.22;;;2.67;;
23730;SDS011;12046;44.702;10.622;2023-03-31T08:20:59;8.07;;;2.42;;
23730;SDS011;12046;44.702;10.622;2023-03-31T08:23:25;8.63;;;2.33;;
23730;SDS011;12046;44.702;10.622;2023-03-31T08:25:51;11.90;;;3.28;;
23730;SDS011;12046;44.702;10.622;2023-03-31T08:28:17;10.43;;;3.10;;
23730;SDS011;12046;44.702;10.622;2023-03-31T08:30:43;8.85;;;3.10;;
23730;SDS011;12046;44.702;10.622;2023-03-31T08:33:10;10.38;;;3.15;;
23730;SDS011;12046;44.702;10.622;2023-03-31T08:35:39;8.70;;;3.30;;
23730;SDS011;12046;44.702;10.622;2023-03-31T08:38:05;8.93;;;2.40;;
23730;SDS011;12046;44.702;10.622;2023-03-31T08:40:31;7.20;;;3.00;;
23730;SDS011;12046;44.702;10.622;2023-03-31T08:43:05;8.93;;;3.22;;
23730;SDS011;12046;44.702;10.622;2023-03-31T08:45:40;17.75;;;3.97;;
23730;SDS011;12046;44.702;10.622;2023-03-31T08:50:49;11.57;;;4.82;;
23730;SDS011;12046;44.702;10.622;2023-03-31T08:55:51;12.70;;;4.15;;
23730;SDS011;12046;44.702;10.622;2023-03-31T09:01:55;10.38;;;4.72;;
23730;SDS011;12046;44.702;10.622;2023-03-31T09:12:06;16.23;;;7.60;;
23730;SDS011;12046;44.702;10.622;2023-03-31T09:14:43;13.25;;;5.53;;
23730;SDS011;12046;44.702;10.622;2023-03-31T09:17:36;13.15;;;7.20;;
23730;SDS011;12046;44.702;10.622;2023-03-31T09:23:07;15.05;;;8.00;;
23730;SDS011;12046;44.702;10.622;2023-03-31T09:25:37;13.25;;;6.97;;
23730;SDS011;12046;44.702;10.622;2023-03-31T09:28:08;13.13;;;7.18;;
23730;SDS011;12046;44.702;10.622;2023-03-31T09:30:44;15.80;;;10.00;;
23730;SDS011;12046;44.702;10.622;2023-03-31T09:33:33;15.55;;;10.65;;
23730;SDS011;12046;44.702;10.622;2023-03-31T09:36:00;13.75;;;7.57;;
23730;SDS011;12046;44.702;10.622;2023-03-31T09:38:30;13.48;;;7.75;;
23730;SDS011;12046;44.702;10.622;2023-03-31T09:40:56;14.38;;;7.75;;
23730;SDS011;12046;44.702;10.622;2023-03-31T09:43:25;13.50;;;7.80;;
23730;SDS011;12046;44.702;10.622;2023-03-31T09:45:53;15.32;;;8.32;;
23730;SDS011;12046;44.702;10.622;2023-03-31T09:48:24;12.45;;;7.32;;
23730;SDS011;12046;44.702;10.622;2023-03-31T09:50:54;11.85;;;6.72;;
23730;SDS011;12046;44.702;10.622;2023-03-31T09:53:27;11.65;;;6.90;;
23730;SDS011;12046;44.702;10.622;2023-03-31T09:55:59;12.05;;;6.95;;
23730;SDS011;12046;44.702;10.622;2023-03-31T09:58:27;12.60;;;6.35;;
23730;SDS011;12046;44.702;10.622;2023-03-31T10:01:00;13.57;;;7.63;;
23730;SDS011;12046;44.702;10.622;2023-03-31T10:03:28;18.38;;;7.22;;
23730;SDS011;12046;44.702;10.622;2023-03-31T10:06:00;13.32;;;5.65;;
23730;SDS011;12046;44.702;10.622;2023-03-31T10:11:29;13.05;;;7.57;;
23730;SDS011;12046;44.702;10.622;2023-03-31T10:14:03;11.88;;;6.57;;
23730;SDS011;12046;44.702;10.622;2023-03-31T10:16:44;11.05;;;6.32;;
23730;SDS011;12046;44.702;10.622;2023-03-31T10:19:28;12.95;;;7.25;;
23730;SDS011;12046;44.702;10.622;2023-03-31T10:27:00;12.18;;;7.53;;
23730;SDS011;12046;44.702;10.622;2023-03-31T10:29:30;14.75;;;7.47;;
23730;SDS011;12046;44.702;10.622;2023-03-31T10:32:08;17.17;;;8.27;;
23730;SDS011;12046;44.702;10.622;2023-03-31T10:34:43;15.23;;;8.48;;
23730;SDS011;12046;44.702;10.622;2023-03-31T10:37:13;13.98;;;8.02;;
23730;SDS011;12046;44.702;10.622;2023-03-31T10:39:43;15.23;;;8.40;;
23730;SDS011;12046;44.702;10.622;2023-03-31T10:42:18;13.73;;;7.00;;
23730;SDS011;12046;44.702;10.622;2023-03-31T10:44:46;11.57;;;6.00;;
23730;SDS011;12046;44.702;10.622;2023-03-31T10:49:38;9.70;;;6.18;;
23730;SDS011;12046;44.702;10.622;2023-03-31T10:52:21;13.20;;;6.32;;
23730;SDS011;12046;44.702;10.622;2023-03-31T10:57:41;12.80;;;7.32;;
23730;SDS011;12046;44.702;10.622;2023-03-31T11:00:31;11.70;;;5.88;;
23730;SDS011;12046;44.702;10.622;2023-03-31T11:03:07;12.73;;;6.47;;
23730;SDS011;12046;44.702;10.622;2023-03-31T11:05:49;16.00;;;6.25;;
23730;SDS011;12046;44.702;10.622;2023-03-31T11:14:04;12.95;;;6.60;;
23730;SDS011;12046;44.702;10.622;2023-03-31T11:27:34;11.45;;;6.28;;
23730;SDS011;12046;44.702;10.622;2023-03-31T11:33:04;10.70;;;6.07;;
23730;SDS011;12046;44.702;10.622;2023-03-31T11:35:43;11.77;;;5.30;;
23730;SDS011;12046;44.702;10.622;2023-03-31T11:38:43;9.88;;;6.28;;
23730;SDS011;12046;44.702;10.622;2023-03-31T11:41:18;13.20;;;6.70;;
23730;SDS011;12046;44.702;10.622;2023-03-31T11:43:59;16.65;;;6.63;;
23730;SDS011;12046;44.702;10.622;2023-03-31T11:51:44;14.20;;;6.38;;
23730;SDS011;12046;44.702;10.622;2023-03-31T11:57:06;13.30;;;5.82;;
23730;SDS011;12046;44.702;10.622;2023-03-31T11:59:52;11.25;;;6.32;;
23730;SDS011;12046;44.702;10.622;2023-03-31T12:02:23;15.02;;;5.88;;
23730;SDS011;12046;44.702;10.622;2023-03-31T12:05:05;12.23;;;6.10;;
23730;SDS011;12046;44.702;10.622;2023-03-31T12:07:36;13.93;;;5.55;;
23730;SDS011;12046;44.702;10.622;2023-03-31T12:10:20;10.80;;;5.30;;
23730;SDS011;12046;44.702;10.622;2023-03-31T12:12:54;13.13;;;5.40;;
23730;SDS011;12046;44.702;10.622;2023-03-31T12:15:39;18.83;;;6.22;;
23730;SDS011;12046;44.702;10.622;2023-03-31T12:18:10;13.80;;;5.88;;
23730;SDS011;12046;44.702;10.622;2023-03-31T12:20:49;10.25;;;5.60;;
23730;SDS011;12046;44.702;10.622;2023-03-31T12:23:27;13.25;;;6.38;;
23730;SDS011;12046;44.702;10.622;2023-03-31T12:28:26;13.85;;;6.47;;
23730;SDS011;12046;44.702;10.622;2023-03-31T12:30:54;13.00;;;5.93;;
23730;SDS011;12046;44.702;10.622;2023-03-31T12:33:24;11.98;;;5.43;;
23730;SDS011;12046;44.702;10.622;2023-03-31T12:44:26;12.57;;;6.82;;
23730;SDS011;12046;44.702;10.622;2023-03-31T12:47:18;12.35;;;6.78;;
23730;SDS011;12046;44.702;10.622;2023-03-31T13:09:01;11.43;;;8.07;;
23730;SDS011;12046;44.702;10.622;2023-03-31T13:16:41;13.48;;;6.32;;
23730;SDS011;12046;44.702;10.622;2023-03-31T13:19:08;13.20;;;6.32;;
23730;SDS011;12046;44.702;10.622;2023-03-31T13:21:55;14.73;;;6.80;;
23730;SDS011;12046;44.702;10.622;2023-03-31T13:24:27;12.00;;;6.18;;
23730;SDS011;12046;44.702;10.622;2023-03-31T13:26:55;13.57;;;6.43;;
23730;SDS011;12046;44.702;10.622;2023-03-31T13:29:39;11.27;;;6.53;;
23730;SDS011;12046;44.702;10.622;2023-03-31T13:32:14;12.25;;;6.30;;
23730;SDS011;12046;44.702;10.622;2023-03-31T13:34:57;11.70;;;6.32;;
23730;SDS011;12046;44.702;10.622;2023-03-31T13:40:25;14.20;;;6.47;;
23730;SDS011;12046;44.702;10.622;2023-03-31T13:56:54;13.60;;;6.43;;
23730;SDS011;12046;44.702;10.622;2023-03-31T13:59:46;10.35;;;5.97;;
23730;SDS011;12046;44.702;10.622;2023-03-31T14:02:52;10.10;;;5.85;;
23730;SDS011;12046;44.702;10.622;2023-03-31T14:08:11;12.95;;;5.75;;
23730;SDS011;12046;44.702;10.622;2023-03-31T14:10:44;12.48;;;6.05;;
23730;SDS011;12046;44.702;10.622;2023-03-31T14:13:14;10.07;;;5.63;;
23730;SDS011;12046;44.702;10.622;2023-03-31T14:18:14;10.48;;;5.50;;
23730;SDS011;12046;44.702;10.622;2023-03-31T14:21:20;9.82;;;4.95;;
23730;SDS011;12046;44.702;10.622;2023-03-31T14:29:51;10.52;;;4.50;;
23730;SDS011;12046;44.702;10.622;2023-03-31T14:35:27;12.43;;;4.78;;
23730;SDS011;12046;44.702;10.622;2023-03-31T14:38:02;12.93;;;5.13;;
23730;SDS011;12046;44.702;10.622;2023-03-31T14:40:34;11.05;;;4.43;;
23730;SDS011;12046;44.702;10.622;2023-03-31T14:43:16;9.65;;;4.95;;
23730;SDS011;12046;44.702;10.622;2023-03-31T14:45:56;14.15;;;5.20;;
23730;SDS011;12046;44.702;10.622;2023-03-31T14:48:23;9.50;;;5.53;;
23730;SDS011;12046;44.702;10.622;2023-03-31T14:50:49;8.95;;;4.70;;
23730;SDS011;12046;44.702;10.622;2023-03-31T14:53:22;10.75;;;4.65;;
23730;SDS011;12046;44.702;10.622;2023-03-31T14:55:50;11.32;;;5.07;;
23730;SDS011;12046;44.702;10.622;2023-03-31T14:58:28;13.27;;;4.60;;
23730;SDS011;12046;44.702;10.622;2023-03-31T15:00:58;11.45;;;4.43;;
23730;SDS011;12046;44.702;10.622;2023-03-31T15:03:27;10.70;;;4.78;;
23730;SDS011;12046;44.702;10.622;2023-03-31T15:05:57;10.50;;;4.50;;
23730;SDS011;12046;44.702;10.622;2023-03-31T15:08:25;13.73;;;5.07;;
23730;SDS011;12046;44.702;10.622;2023-03-31T15:10:56;12.98;;;5.00;;
23730;SDS011;12046;44.702;10.622;2023-03-31T15:15:56;13.15;;;5.15;;
23730;SDS011;12046;44.702;10.622;2023-03-31T15:18:24;10.90;;;4.60;;
23730;SDS011;12046;44.702;10.622;2023-03-31T15:20:51;16.58;;;5.13;;
23730;SDS011;12046;44.702;10.622;2023-03-31T15:23:18;12.23;;;5.30;;
23730;SDS011;12046;44.702;10.622;2023-03-31T15:25:57;9.52;;;4.47;;
23730;SDS011;12046;44.702;10.622;2023-03-31T15:28:28;10.38;;;4.65;;
23730;SDS011;12046;44.702;10.622;2023-03-31T15:31:01;11.98;;;4.25;;
23730;SDS011;12046;44.702;10.622;2023-03-31T15:33:30;11.50;;;4.80;;
23730;SDS011;12046;44.702;10.622;2023-03-31T15:36:00;8.73;;;4.55;;
23730;SDS011;12046;44.702;10.622;2023-03-31T15:38:27;9.80;;;4.93;;
23730;SDS011;12046;44.702;10.622;2023-03-31T15:40:56;9.63;;;4.45;;
23730;SDS011;12046;44.702;10.622;2023-03-31T15:43:27;9.80;;;4.30;;
23730;SDS011;12046;44.702;10.622;2023-03-31T15:45:55;11.88;;;4.78;;
23730;SDS011;12046;44.702;10.622;2023-03-31T15:48:29;8.70;;;3.83;;
23730;SDS011;12046;44.702;10.622;2023-03-31T15:51:06;11.43;;;3.90;;
23730;SDS011;12046;44.702;10.622;2023-03-31T15:53:47;11.93;;;3.83;;
23730;SDS011;12046;44.702;10.622;2023-03-31T15:58:55;10.88;;;4.70;;
23730;SDS011;12046;44.702;10.622;2023-03-31T16:01:28;8.32;;;4.22;;
23730;SDS011;12046;44.702;10.622;2023-03-31T16:03:59;12.70;;;4.30;;
23730;SDS011;12046;44.702;10.622;2023-03-31T16:06:35;9.95;;;3.97;;
23730;SDS011;12046;44.702;10.622;2023-03-31T16:09:04;7.55;;;3.63;;
23730;SDS011;12046;44.702;10.622;2023-03-31T16:11:36;8.10;;;3.58;;
23730;SDS011;12046;44.702;10.622;2023-03-31T16:14:16;9.27;;;3.40;;
23730;SDS011;12046;44.702;10.622;2023-03-31T16:16:54;9.82;;;3.88;;
23730;SDS011;12046;44.702;10.622;2023-03-31T16:19:24;13.30;;;4.40;;
23730;SDS011;12046;44.702;10.622;2023-03-31T16:21:53;13.35;;;3.90;;
23730;SDS011;12046;44.702;10.622;2023-03-31T16:24:27;13.40;;;3.85;;
23730;SDS011;12046;44.702;10.622;2023-03-31T16:26:59;9.38;;;4.13;;
23730;SDS011;12046;44.702;10.622;2023-03-31T16:29:30;11.43;;;3.95;;
23730;SDS011;12046;44.702;10.622;2023-03-31T16:32:08;10.90;;;4.70;;
23730;SDS011;12046;44.702;10.622;2023-03-31T16:34:52;8.98;;;4.05;;
23730;SDS011;12046;44.702;10.622;2023-03-31T16:37:21;9.95;;;3.80;;
23730;SDS011;12046;44.702;10.622;2023-03-31T16:39:47;11.70;;;4.40;;
23730;SDS011;12046;44.702;10.622;2023-03-31T16:42:13;10.57;;;3.92;;
23730;SDS011;12046;44.702;10.622;2023-03-31T16:44:38;12.50;;;4.07;;
23730;SDS011;12046;44.702;10.622;2023-03-31T16:47:04;8.95;;;4.00;;
23730;SDS011;12046;44.702;10.622;2023-03-31T16:49:30;9.98;;;3.95;;
23730;SDS011;12046;44.702;10.622;2023-03-31T16:51:56;9.52;;;4.03;;
23730;SDS011;12046;44.702;10.622;2023-03-31T16:54:22;8.77;;;4.65;;
23730;SDS011;12046;44.702;10.622;2023-03-31T16:56:48;8.13;;;4.00;;
23730;SDS011;12046;44.702;10.622;2023-03-31T16:59:14;9.13;;;3.63;;
23730;SDS011;12046;44.702;10.622;2023-03-31T17:01:40;10.70;;;3.80;;
23730;SDS011;12046;44.702;10.622;2023-03-31T17:04:06;8.00;;;3.63;;
23730;SDS011;12046;44.702;10.622;2023-03-31T17:06:32;11.45;;;4.03;;
23730;SDS011;12046;44.702;10.622;2023-03-31T17:08:57;10.52;;;4.82;;
23730;SDS011;12046;44.702;10.622;2023-03-31T17:11:23;9.05;;;4.30;;
23730;SDS011;12046;44.702;10.622;2023-03-31T17:13:51;13.18;;;4.85;;
23730;SDS011;12046;44.702;10.622;2023-03-31T17:16:18;13.43;;;4.63;;
23730;SDS011;12046;44.702;10.622;2023-03-31T17:18:45;7.57;;;4.50;;
23730;SDS011;12046;44.702;10.622;2023-03-31T17:21:12;11.68;;;5.80;;
23730;SDS011;12046;44.702;10.622;2023-03-31T17:23:39;9.88;;;4.68;;
23730;SDS011;12046;44.702;10.622;2023-03-31T17:26:07;12.43;;;5.10;;
23730;SDS011;12046;44.702;10.622;2023-03-31T17:28:58;18.52;;;5.78;;
23730;SDS011;12046;44.702;10.622;2023-03-31T17:31:24;14.63;;;5.85;;
23730;SDS011;12046;44.702;10.622;2023-03-31T17:33:51;14.77;;;5.78;;
23730;SDS011;12046;44.702;10.622;2023-03-31T17:36:16;11.75;;;5.47;;
23730;SDS011;12046;44.702;10.622;2023-03-31T17:38:42;13.48;;;5.57;;
23730;SDS011;12046;44.702;10.622;2023-03-31T17:41:09;14.80;;;5.95;;
23730;SDS011;12046;44.702;10.622;2023-03-31T17:43:37;13.63;;;5.80;;
23730;SDS011;12046;44.702;10.622;2023-03-31T17:46:07;15.98;;;6.15;;
23730;SDS011;12046;44.702;10.622;2023-03-31T17:48:36;12.05;;;6.20;;
23730;SDS011;12046;44.702;10.622;2023-03-31T17:51:13;15.25;;;6.30;;
23730;SDS011;12046;44.702;10.622;2023-03-31T17:53:41;8.70;;;5.13;;
23730;SDS011;12046;44.702;10.622;2023-03-31T17:56:08;14.77;;;6.40;;
23730;SDS011;12046;44.702;10.622;2023-03-31T17:58:34;15.52;;;5.70;;
23730;SDS011;12046;44.702;10.622;2023-03-31T18:01:01;13.90;;;6.55;;
23730;SDS011;12046;44.702;10.622;2023-03-31T18:03:31;16.10;;;7.10;;
23730;SDS011;12046;44.702;10.622;2023-03-31T18:06:02;12.48;;;6.10;;
23730;SDS011;12046;44.702;10.622;2023-03-31T18:08:32;12.75;;;6.47;;
23730;SDS011;12046;44.702;10.622;2023-03-31T18:10:59;12.02;;;6.20;;
23730;SDS011;12046;44.702;10.622;2023-03-31T18:13:25;16.58;;;6.82;;
23730;SDS011;12046;44.702;10.622;2023-03-31T18:15:51;15.32;;;6.78;;
23730;SDS011;12046;44.702;10.622;2023-03-31T18:18:18;10.88;;;6.35;;
23730;SDS011;12046;44.702;10.622;2023-03-31T18:20:44;11.48;;;6.07;;
23730;SDS011;12046;44.702;10.622;2023-03-31T18:23:11;13.60;;;6.60;;
23730;SDS011;12046;44.702;10.622;2023-03-31T18:25:37;11.52;;;6.40;;
23730;SDS011;12046;44.702;10.622;2023-03-31T18:28:03;17.00;;;6.72;;
23730;SDS011;12046;44.702;10.622;2023-03-31T18:30:29;14.30;;;6.20;;
23730;SDS011;12046;44.702;10.622;2023-03-31T18:32:54;15.45;;;6.63;;
23730;SDS011;12046;44.702;10.622;2023-03-31T18:35:21;14.05;;;6.88;;